createdAt,value
2022-08-11T00:01:29.583Z,60.60
2022-08-11T00:04:02.651Z,61.10
2022-08-11T00:06:38.317Z,60.80
2022-08-11T00:09:09.976Z,60.80
2022-08-11T00:11:41.624Z,60.90
2022-08-11T00:14:20.070Z,61.00
2022-08-11T00:16:57.552Z,61.20
2022-08-11T00:20:14.389Z,61.20
2022-08-11T00:22:26.033Z,61.20
2022-08-11T00:24:58.515Z,61.20
2022-08-11T00:27:39.885Z,61.10
2022-08-11T00:30:09.100Z,61.70
2022-08-11T00:32:39.628Z,61.40
2022-08-11T00:35:51.760Z,61.50
2022-08-11T00:38:00.645Z,61.60
2022-08-11T00:40:52.120Z,61.60
2022-08-11T00:43:41.754Z,61.80
2022-08-11T00:46:25.701Z,61.50
2022-08-11T00:49:00.830Z,61.90
2022-08-11T00:52:05.079Z,61.90
2022-08-11T00:54:54.319Z,62.00
2022-08-11T00:57:52.222Z,62.00
2022-08-11T01:00:23.500Z,62.40
2022-08-11T01:02:56.565Z,62.00
2022-08-11T01:05:48.244Z,62.30
2022-08-11T01:08:30.020Z,62.40
2022-08-11T01:10:56.995Z,62.50
2022-08-11T01:13:52.116Z,62.30
2022-08-11T01:16:37.209Z,62.40
2022-08-11T01:19:25.319Z,62.60
2022-08-11T01:22:29.529Z,62.70
2022-08-11T01:25:17.742Z,62.60
2022-08-11T01:28:11.456Z,62.70
2022-08-11T01:31:06.186Z,62.90
2022-08-11T01:33:54.914Z,62.80
2022-08-11T01:36:46.497Z,62.90
2022-08-11T01:39:42.614Z,63.10
2022-08-11T01:42:37.088Z,63.20
2022-08-11T01:45:36.332Z,63.40
2022-08-11T01:48:09.285Z,63.30
2022-08-11T01:50:57.537Z,63.20
2022-08-11T01:53:27.557Z,63.40
2022-08-11T01:56:00.170Z,63.30
2022-08-11T01:58:46.534Z,63.40
2022-08-11T02:01:32.088Z,63.50
2022-08-11T02:04:32.826Z,63.70
2022-08-11T02:07:09.134Z,63.90
2022-08-11T02:09:54.551Z,63.60
2022-08-11T02:12:42.140Z,63.80
2022-08-11T02:15:34.594Z,64.00
2022-08-11T02:18:23.048Z,64.00
2022-08-11T02:21:18.808Z,64.10
2022-08-11T02:24:04.833Z,64.10
2022-08-11T02:26:50.860Z,64.10
2022-08-11T02:29:49.449Z,64.10
2022-08-11T02:32:40.993Z,64.10
2022-08-11T02:35:16.555Z,64.10
2022-08-11T02:38:33.529Z,64.40
2022-08-11T02:41:40.081Z,64.50
2022-08-11T02:44:15.406Z,64.40
2022-08-11T02:46:51.329Z,64.30
2022-08-11T02:50:06.161Z,64.50
2022-08-11T02:52:51.551Z,64.60
2022-08-11T02:55:44.676Z,64.80
2022-08-11T02:58:44.121Z,64.70
2022-08-11T03:01:23.639Z,64.90
2022-08-11T03:04:03.725Z,64.80
2022-08-11T03:06:54.254Z,65.00
2022-08-11T03:09:50.035Z,64.90
2022-08-11T03:12:53.149Z,64.80
2022-08-11T03:16:07.937Z,65.30
2022-08-11T03:18:41.295Z,65.30
2022-08-11T03:21:15.823Z,65.10
2022-08-11T03:23:54.958Z,65.20
2022-08-11T03:26:47.175Z,65.40
2022-08-11T03:29:35.915Z,65.40
2022-08-11T03:33:09.373Z,65.50
2022-08-11T03:35:43.594Z,65.50
2022-08-11T03:38:16.875Z,65.60
2022-08-11T03:41:50.394Z,65.80
2022-08-11T03:44:00.447Z,65.70
2022-08-11T03:47:07.199Z,65.80
2022-08-11T03:49:55.187Z,66.30
2022-08-11T03:52:27.798Z,66.00
2022-08-11T03:55:32.342Z,66.00
2022-08-11T03:58:29.595Z,66.30
2022-08-11T04:01:21.512Z,66.20
2022-08-11T04:04:06.585Z,66.20
2022-08-11T04:07:17.608Z,66.30
2022-08-11T04:10:12.777Z,66.50
2022-08-11T04:12:55.925Z,66.70
2022-08-11T04:15:47.269Z,67.30
2022-08-11T04:18:28.867Z,66.50
2022-08-11T04:21:03.349Z,66.60
2022-08-11T04:24:37.024Z,66.70
2022-08-11T04:27:36.860Z,66.90
2022-08-11T04:30:12.076Z,66.80
2022-08-11T04:33:03.420Z,66.80
2022-08-11T04:35:50.358Z,67.00
2022-08-11T04:38:43.008Z,67.10
2022-08-11T04:42:12.728Z,67.20
2022-08-11T04:45:01.730Z,67.30
2022-08-11T04:48:04.634Z,67.20
2022-08-11T04:51:16.684Z,67.20
2022-08-11T04:54:28.932Z,67.30
2022-08-11T04:57:24.185Z,67.50
2022-08-11T05:00:26.582Z,67.30
2022-08-11T05:03:38.593Z,67.70
2022-08-11T05:06:25.330Z,67.60
2022-08-11T05:09:23.643Z,67.90
2022-08-11T05:11:57.846Z,67.80
2022-08-11T05:15:20.558Z,67.80
2022-08-11T05:18:39.830Z,68.10
2022-08-11T05:21:44.455Z,68.00
2022-08-11T05:24:40.926Z,67.90
2022-08-11T05:27:30.875Z,68.10
2022-08-11T05:30:27.111Z,68.10
2022-08-11T05:33:23.724Z,68.10
2022-08-11T05:36:03.344Z,68.20
2022-08-11T05:38:53.234Z,68.20
2022-08-11T05:41:42.955Z,68.30
2022-08-11T05:44:29.916Z,68.30
2022-08-11T05:47:16.338Z,68.20
2022-08-11T05:50:13.819Z,68.30
2022-08-11T05:53:05.235Z,68.50
2022-08-11T05:56:03.561Z,68.40
2022-08-11T05:58:42.585Z,68.50
2022-08-11T06:01:12.464Z,68.70
2022-08-11T06:04:02.643Z,68.70
2022-08-11T06:06:31.331Z,68.80
2022-08-11T06:08:59.336Z,68.80
2022-08-11T06:11:43.891Z,69.00
2022-08-11T06:14:12.513Z,69.00
2022-08-11T06:16:42.468Z,69.10
2022-08-11T06:19:10.525Z,69.20
2022-08-11T06:21:38.521Z,69.20
2022-08-11T06:24:15.558Z,69.20
2022-08-11T06:27:11.279Z,69.40
2022-08-11T06:29:47.584Z,69.50
2022-08-11T06:32:16.541Z,69.40
2022-08-11T06:35:02.093Z,69.70
2022-08-11T06:37:37.998Z,69.70
2022-08-11T06:40:30.141Z,69.80
2022-08-11T06:43:23.237Z,70.70
2022-08-11T06:46:07.947Z,70.20
2022-08-11T06:48:39.240Z,70.10
2022-08-11T06:51:14.875Z,69.90
2022-08-11T06:54:04.485Z,70.00
2022-08-11T07:00:03.846Z,70.40
2022-08-11T07:02:37.214Z,70.30
2022-08-11T07:05:38.114Z,70.40
2022-08-11T07:09:03.927Z,70.80
2022-08-11T07:12:18.844Z,70.20
2022-08-11T07:15:15.632Z,71.30
2022-08-11T07:18:11.143Z,72.30
2022-08-11T07:21:02.296Z,74.00
2022-08-11T07:23:51.853Z,74.90
2022-08-11T07:26:40.414Z,75.50
2022-08-11T07:29:10.177Z,75.80
2022-08-11T07:31:50.615Z,76.30
2022-08-11T07:34:25.692Z,77.40
2022-08-11T07:37:00.914Z,77.20
2022-08-11T07:39:32.826Z,77.90
2022-08-11T07:42:04.961Z,77.90
2022-08-11T07:44:52.843Z,78.10
2022-08-11T07:47:39.278Z,78.30
2022-08-11T07:50:27.324Z,78.50
2022-08-11T07:52:55.323Z,78.60
2022-08-11T07:55:49.076Z,78.80
2022-08-11T07:58:34.766Z,79.20
2022-08-11T08:01:29.860Z,79.20
2022-08-11T08:04:17.935Z,79.30
2022-08-11T08:07:04.069Z,79.40
2022-08-11T08:09:53.615Z,79.40
2022-08-11T08:12:41.584Z,80.30
2022-08-11T08:15:29.226Z,80.30
2022-08-11T08:18:09.651Z,80.10
2022-08-11T08:20:47.764Z,80.30
2022-08-11T08:23:15.421Z,81.50
2022-08-11T08:25:44.774Z,79.60
2022-08-11T08:28:16.604Z,80.20
2022-08-11T08:30:47.718Z,80.40
2022-08-11T08:33:24.901Z,79.30
2022-08-11T08:36:12.912Z,79.30
2022-08-11T08:38:56.956Z,79.50
2022-08-11T08:41:32.308Z,79.20
2022-08-11T08:44:37.624Z,78.60
2022-08-11T08:46:58.761Z,78.60
2022-08-11T08:49:40.551Z,77.80
2022-08-11T08:52:29.522Z,77.90
2022-08-11T08:55:04.519Z,77.70
2022-08-11T08:57:39.200Z,78.30
2022-08-11T09:00:12.562Z,76.80
2022-08-11T09:02:42.630Z,76.60
2022-08-11T09:05:10.158Z,76.50
2022-08-11T09:07:40.651Z,76.20
2022-08-11T09:10:08.714Z,76.80
2022-08-11T09:12:39.209Z,76.40
2022-08-11T09:15:10.178Z,76.00
2022-08-11T09:17:44.896Z,75.10
2022-08-11T09:20:24.770Z,75.30
2022-08-11T09:26:22.282Z,72.50
2022-08-11T09:28:59.177Z,71.20
2022-08-11T09:31:27.115Z,70.80
2022-08-11T09:33:55.472Z,69.90
2022-08-11T09:36:41.571Z,69.30
2022-08-11T09:39:31.178Z,69.60
2022-08-11T09:42:23.721Z,69.20
2022-08-11T09:44:50.922Z,69.20
2022-08-11T09:47:29.739Z,68.90
2022-08-11T09:50:01.428Z,69.00
2022-08-11T09:52:38.804Z,68.90
2022-08-11T09:55:11.228Z,68.10
2022-08-11T09:58:04.826Z,68.20
2022-08-11T10:00:40.322Z,68.10
2022-08-11T10:03:18.201Z,67.70
2022-08-11T10:06:08.145Z,67.40
2022-08-11T10:08:39.205Z,66.80
2022-08-11T10:11:09.403Z,66.50
2022-08-11T10:14:32.218Z,65.30
2022-08-11T10:16:49.580Z,65.40
2022-08-11T10:19:19.418Z,65.10
2022-08-11T10:22:11.090Z,64.40
2022-08-11T10:24:57.251Z,65.80
2022-08-11T10:27:29.010Z,65.70
2022-08-11T10:30:31.834Z,64.00
2022-08-11T10:33:36.455Z,64.40
2022-08-11T10:36:16.147Z,64.50
2022-08-11T10:38:45.909Z,63.80
2022-08-11T10:41:33.012Z,62.60
2022-08-11T10:44:03.834Z,64.00
2022-08-11T10:46:50.898Z,63.60
2022-08-11T10:49:20.237Z,63.20
2022-08-11T10:52:06.301Z,62.60
2022-08-11T10:54:53.682Z,62.30
2022-08-11T10:57:39.520Z,62.50
2022-08-11T11:00:09.721Z,62.00
2022-08-11T11:02:37.195Z,61.60
2022-08-11T11:05:16.589Z,61.20
2022-08-11T11:08:45.294Z,59.30
2022-08-11T11:11:18.398Z,60.70
2022-08-11T11:14:10.371Z,59.30
2022-08-11T11:16:59.232Z,59.30
2022-08-11T11:19:27.950Z,59.70
2022-08-11T11:22:17.860Z,59.40
2022-08-11T11:25:17.816Z,58.40
2022-08-11T11:28:01.475Z,58.90
2022-08-11T11:30:38.401Z,57.30
2022-08-11T11:34:06.273Z,58.20
2022-08-11T11:36:54.630Z,58.20
2022-08-11T11:39:27.496Z,57.10
2022-08-11T11:42:04.255Z,56.90
2022-08-11T11:44:32.520Z,57.00
2022-08-11T11:47:01.391Z,56.20
2022-08-11T11:49:32.616Z,56.10
2022-08-11T11:52:00.982Z,56.60
2022-08-11T11:54:34.389Z,56.10
2022-08-11T11:57:23.057Z,54.90
2022-08-11T12:00:10.417Z,55.50
2022-08-11T12:02:38.167Z,55.50
2022-08-11T12:05:06.188Z,53.70
2022-08-11T12:08:05.145Z,53.10
2022-08-11T12:10:49.525Z,52.60
2022-08-11T12:13:47.474Z,51.30
2022-08-11T12:16:33.759Z,50.80
2022-08-11T12:19:11.475Z,50.60
2022-08-11T12:22:01.063Z,49.70
2022-08-11T12:24:48.962Z,50.10
2022-08-11T12:27:37.208Z,50.20
2022-08-11T12:30:08.650Z,50.30
2022-08-11T12:32:37.984Z,49.40
2022-08-11T12:35:06.595Z,48.90
2022-08-11T12:38:07.971Z,48.70
2022-08-11T12:41:15.060Z,48.50
2022-08-11T12:44:05.854Z,48.40
2022-08-11T12:46:40.823Z,47.80
2022-08-11T12:49:33.934Z,47.20
2022-08-11T12:52:15.538Z,46.30
2022-08-11T12:54:51.750Z,45.40
2022-08-11T12:57:49.083Z,45.30
2022-08-11T13:00:36.320Z,44.30
2022-08-11T13:03:24.432Z,44.70
2022-08-11T13:05:55.715Z,44.30
2022-08-11T13:08:25.132Z,44.00
2022-08-11T13:11:12.820Z,44.30
2022-08-11T13:13:54.134Z,43.90
2022-08-11T13:16:32.312Z,43.70
2022-08-11T13:19:01.490Z,42.40
2022-08-11T13:21:30.113Z,42.60
2022-08-11T13:23:59.869Z,42.10
2022-08-11T13:26:46.784Z,40.90
2022-08-11T13:29:23.348Z,40.00
2022-08-11T13:31:52.550Z,39.40
2022-08-11T13:34:21.630Z,39.70
2022-08-11T13:36:54.556Z,39.40
2022-08-11T13:39:27.325Z,38.80
2022-08-11T13:42:00.374Z,39.10
2022-08-11T13:44:30.447Z,39.00
2022-08-11T13:47:01.651Z,39.00
2022-08-11T13:49:39.590Z,39.00
2022-08-11T13:52:13.067Z,38.30
2022-08-11T13:54:41.300Z,38.30
2022-08-11T13:57:13.906Z,38.20
2022-08-11T14:00:09.744Z,37.70
2022-08-11T14:02:44.434Z,37.30
2022-08-11T14:05:33.897Z,37.20
2022-08-11T14:08:04.786Z,35.60
2022-08-11T14:10:35.091Z,36.30
2022-08-11T14:13:26.091Z,37.60
2022-08-11T14:15:54.099Z,36.70
2022-08-11T14:18:26.834Z,37.20
2022-08-11T14:21:22.413Z,37.20
2022-08-11T14:23:55.037Z,37.30
2022-08-11T14:26:29.170Z,37.40
2022-08-11T14:29:14.325Z,37.50
2022-08-11T14:31:49.755Z,37.00
2022-08-11T14:34:21.228Z,37.30
2022-08-11T14:36:52.739Z,37.50
2022-08-11T14:39:29.300Z,37.70
2022-08-11T14:42:22.651Z,37.80
2022-08-11T14:45:13.443Z,37.90
2022-08-11T14:47:43.979Z,38.10
2022-08-11T14:50:17.898Z,37.80
2022-08-11T14:52:50.283Z,38.00
2022-08-11T14:55:39.087Z,38.00
2022-08-11T14:58:12.925Z,38.20
2022-08-11T15:00:42.446Z,38.60
2022-08-11T15:03:12.861Z,38.50
2022-08-11T15:06:02.329Z,38.40
2022-08-11T15:08:51.543Z,38.10
2022-08-11T15:11:40.188Z,39.40
2022-08-11T15:14:09.970Z,38.60
2022-08-11T15:16:59.166Z,38.90
2022-08-11T15:19:29.051Z,38.90
2022-08-11T15:22:35.882Z,39.00
2022-08-11T15:25:02.918Z,38.70
2022-08-11T15:27:51.328Z,38.70
2022-08-11T15:30:39.995Z,39.70
2022-08-11T15:33:27.694Z,39.20
2022-08-11T15:36:15.532Z,39.10
2022-08-11T15:38:57.908Z,39.40
2022-08-11T15:41:58.577Z,39.80
2022-08-11T15:45:05.783Z,39.50
2022-08-11T15:47:48.786Z,39.70
2022-08-11T15:50:20.443Z,39.90
2022-08-11T15:52:56.539Z,39.60
2022-08-11T15:55:25.620Z,39.80
2022-08-11T15:58:14.004Z,39.90
2022-08-11T16:01:08.652Z,40.00
2022-08-11T16:04:09.233Z,39.90
2022-08-11T16:06:55.825Z,40.10
2022-08-11T16:09:57.038Z,40.00
2022-08-11T16:12:37.387Z,40.30
2022-08-11T16:15:29.524Z,40.70
2022-08-11T16:18:01.107Z,40.40
2022-08-11T16:20:30.873Z,40.70
2022-08-11T16:23:02.673Z,40.40
2022-08-11T16:27:06.987Z,40.50
2022-08-11T16:28:23.294Z,40.40
2022-08-11T16:30:52.215Z,40.50
2022-08-11T16:33:49.947Z,40.60
2022-08-11T16:36:31.824Z,40.90
2022-08-11T16:39:01.647Z,40.60
2022-08-11T16:41:50.489Z,40.90
2022-08-11T16:44:38.334Z,40.90
2022-08-11T16:47:15.919Z,41.10
2022-08-11T16:49:52.604Z,40.80
2022-08-11T16:52:22.245Z,40.80
2022-08-11T16:54:50.156Z,41.00
2022-08-11T16:57:45.919Z,40.90
2022-08-11T17:00:15.898Z,40.90
2022-08-11T17:03:08.973Z,40.90
2022-08-11T17:05:58.216Z,40.90
2022-08-11T17:08:57.668Z,41.20
2022-08-11T17:11:50.699Z,40.90
2022-08-11T17:14:35.245Z,41.30
2022-08-11T17:17:18.096Z,41.60
2022-08-11T17:20:41.114Z,41.40
2022-08-11T17:22:57.937Z,41.60
2022-08-11T17:25:28.434Z,41.50
2022-08-11T17:27:56.838Z,42.10
2022-08-11T17:30:45.442Z,42.10
2022-08-11T17:33:34.098Z,42.10
2022-08-11T17:36:02.820Z,41.80
2022-08-11T17:38:31.450Z,42.00
2022-08-11T17:41:23.221Z,42.20
2022-08-11T17:44:11.290Z,41.90
2022-08-11T17:47:02.235Z,42.10
2022-08-11T17:49:37.829Z,42.40
2022-08-11T17:52:25.942Z,42.70
2022-08-11T17:55:13.664Z,42.80
2022-08-11T17:58:01.299Z,42.90
2022-08-11T18:00:29.477Z,42.50
2022-08-11T18:03:19.657Z,43.00
2022-08-11T18:05:46.913Z,43.00
2022-08-11T18:08:35.584Z,42.50
2022-08-11T18:12:06.159Z,42.70
2022-08-11T18:14:30.327Z,42.60
2022-08-11T18:17:15.794Z,43.10
2022-08-11T18:20:01.766Z,42.80
2022-08-11T18:22:55.834Z,42.80
2022-08-11T18:25:57.439Z,42.90
2022-08-11T18:28:48.275Z,42.90
2022-08-11T18:31:36.989Z,42.90
2022-08-11T18:34:25.934Z,42.40
2022-08-11T18:37:27.205Z,42.40
2022-08-11T18:40:24.050Z,42.70
2022-08-11T18:43:11.937Z,42.50
2022-08-11T18:46:06.279Z,42.80
2022-08-11T18:48:57.619Z,42.70
2022-08-11T18:51:45.367Z,42.50
2022-08-11T18:54:32.561Z,42.40
2022-08-11T18:57:21.466Z,42.70
2022-08-11T19:00:09.342Z,43.00
2022-08-11T19:02:57.313Z,42.80
2022-08-11T19:06:32.175Z,42.70
2022-08-11T19:08:55.800Z,42.80
2022-08-11T19:11:44.263Z,43.10
2022-08-11T19:14:31.745Z,43.20
2022-08-11T19:17:43.394Z,43.20
2022-08-11T19:20:29.886Z,43.50
2022-08-11T19:23:15.397Z,43.70
2022-08-11T19:26:03.893Z,44.10
2022-08-11T19:28:50.857Z,44.00
2022-08-11T19:31:42.313Z,44.30
2022-08-11T19:34:33.030Z,44.10
2022-08-11T19:37:24.012Z,44.30
2022-08-11T19:40:18.253Z,44.40
2022-08-11T19:43:20.618Z,44.70
2022-08-11T19:46:15.329Z,44.90
2022-08-11T19:49:03.096Z,44.70
2022-08-11T19:51:53.857Z,45.20
2022-08-11T19:54:47.427Z,45.40
2022-08-11T19:57:39.357Z,45.70
2022-08-11T20:00:33.828Z,45.80
2022-08-11T20:03:22.373Z,46.20
2022-08-11T20:06:09.740Z,46.40
2022-08-11T20:08:59.872Z,46.70
2022-08-11T20:11:50.212Z,46.70
2022-08-11T20:14:36.625Z,47.50
2022-08-11T20:17:23.058Z,48.50
2022-08-11T20:20:09.648Z,47.90
2022-08-11T20:22:57.535Z,48.40
2022-08-11T20:25:45.482Z,48.90
2022-08-11T20:28:32.878Z,48.80
2022-08-11T20:31:18.650Z,49.40
2022-08-11T20:34:05.498Z,49.50
2022-08-11T20:36:54.919Z,49.90
2022-08-11T20:39:43.247Z,50.00
2022-08-11T20:42:31.486Z,50.10
2022-08-11T20:45:23.995Z,50.20
2022-08-11T20:48:14.915Z,50.30
2022-08-11T20:51:06.195Z,50.50
2022-08-11T20:53:56.839Z,50.40
2022-08-11T20:56:46.122Z,50.70
2022-08-11T20:59:42.811Z,50.70
2022-08-11T21:02:44.442Z,50.90
2022-08-11T21:06:08.707Z,51.00
2022-08-11T21:08:42.764Z,51.30
2022-08-11T21:11:29.240Z,51.50
2022-08-11T21:14:16.419Z,51.80
2022-08-11T21:17:27.106Z,51.90
2022-08-11T21:20:17.056Z,52.10
2022-08-11T21:23:10.249Z,52.20
2022-08-11T21:26:04.278Z,52.50
2022-08-11T21:28:52.882Z,53.20
2022-08-11T21:31:39.969Z,52.80
2022-08-11T21:34:28.651Z,52.90
2022-08-11T21:37:16.923Z,53.10
2022-08-11T21:40:04.613Z,53.20
2022-08-11T21:42:53.169Z,53.30
2022-08-11T21:45:40.071Z,53.50
2022-08-11T21:48:27.716Z,53.70
2022-08-11T21:51:13.577Z,54.20
2022-08-11T21:53:59.974Z,54.60
2022-08-11T21:56:46.719Z,54.20
2022-08-11T21:59:37.012Z,53.90
2022-08-11T22:02:22.924Z,53.80
2022-08-11T22:05:09.695Z,53.60
2022-08-11T22:07:58.365Z,53.40
2022-08-11T22:10:44.245Z,53.30
2022-08-11T22:13:31.686Z,53.20
2022-08-11T22:16:18.496Z,53.10
2022-08-11T22:19:08.566Z,53.20
2022-08-11T22:22:01.445Z,53.00
2022-08-11T22:24:52.749Z,52.80
2022-08-11T22:27:40.043Z,53.00
2022-08-11T22:30:28.064Z,52.80
2022-08-11T22:33:16.677Z,52.90
2022-08-11T22:36:06.703Z,53.10
2022-08-11T22:38:54.147Z,53.10
2022-08-11T22:41:41.268Z,53.20
2022-08-11T22:44:28.176Z,53.20
2022-08-11T22:47:18.468Z,53.20
2022-08-11T22:50:08.784Z,53.20
2022-08-11T22:52:56.257Z,53.40
2022-08-11T22:55:44.711Z,53.20
2022-08-11T22:58:32.836Z,53.20
2022-08-11T23:01:19.604Z,53.20
2022-08-11T23:04:06.720Z,53.20
2022-08-11T23:06:57.911Z,53.30
2022-08-11T23:09:46.094Z,53.40
2022-08-11T23:12:31.781Z,53.40
2022-08-11T23:15:18.900Z,53.60
2022-08-11T23:18:05.539Z,53.80
2022-08-11T23:20:51.805Z,53.60
2022-08-11T23:23:38.927Z,53.40
2022-08-11T23:26:25.870Z,53.60
2022-08-11T23:29:14.632Z,53.60
2022-08-11T23:32:01.776Z,53.60
2022-08-11T23:35:03.568Z,53.80
2022-08-11T23:37:51.334Z,54.10
2022-08-11T23:40:36.998Z,54.00
2022-08-11T23:43:22.983Z,54.00
2022-08-11T23:46:08.322Z,53.90
2022-08-11T23:48:55.884Z,54.20
2022-08-11T23:51:45.439Z,54.20
2022-08-11T23:54:36.623Z,54.40
2022-08-11T23:57:24.279Z,54.30
